sensor_id;sensor_type;location;lat;lon;timestamp;P1;durP1;ratioP1;P2;durP2;ratioP2
36855;SDS011;22788;51.434;6.786;2023-08-17T00:01:27;5.95;;;3.03;;
36855;SDS011;22788;51.434;6.786;2023-08-17T00:03:53;4.45;;;2.80;;
36855;SDS011;22788;51.434;6.786;2023-08-17T00:06:19;6.00;;;3.17;;
36855;SDS011;22788;51.434;6.786;2023-08-17T00:08:44;3.05;;;2.47;;
36855;SDS011;22788;51.434;6.786;2023-08-17T00:11:11;3.30;;;2.55;;
36855;SDS011;22788;51.434;6.786;2023-08-17T00:13:37;3.25;;;2.70;;
36855;SDS011;22788;51.434;6.786;2023-08-17T00:16:03;2.88;;;2.67;;
36855;SDS011;22788;51.434;6.786;2023-08-17T00:18:28;4.68;;;2.72;;
36855;SDS011;22788;51.434;6.786;2023-08-17T00:20:54;3.13;;;2.72;;
36855;SDS011;22788;51.434;6.786;2023-08-17T00:23:20;3.40;;;2.83;;
36855;SDS011;22788;51.434;6.786;2023-08-17T00:25:45;3.80;;;2.85;;
36855;SDS011;22788;51.434;6.786;2023-08-17T00:28:12;4.00;;;2.78;;
36855;SDS011;22788;51.434;6.786;2023-08-17T00:30:38;4.43;;;3.15;;
36855;SDS011;22788;51.434;6.786;2023-08-17T00:33:04;4.88;;;3.17;;
36855;SDS011;22788;51.434;6.786;2023-08-17T00:35:29;4.50;;;3.10;;
36855;SDS011;22788;51.434;6.786;2023-08-17T00:37:55;3.17;;;2.88;;
36855;SDS011;22788;51.434;6.786;2023-08-17T00:40:20;4.15;;;2.60;;
36855;SDS011;22788;51.434;6.786;2023-08-17T00:42:46;5.22;;;2.60;;
36855;SDS011;22788;51.434;6.786;2023-08-17T00:45:13;3.53;;;2.50;;
36855;SDS011;22788;51.434;6.786;2023-08-17T00:47:39;3.83;;;2.50;;
36855;SDS011;22788;51.434;6.786;2023-08-17T00:50:05;4.00;;;2.80;;
36855;SDS011;22788;51.434;6.786;2023-08-17T00:52:32;4.93;;;2.53;;
36855;SDS011;22788;51.434;6.786;2023-08-17T00:54:58;3.58;;;2.50;;
36855;SDS011;22788;51.434;6.786;2023-08-17T00:57:26;5.07;;;2.67;;
36855;SDS011;22788;51.434;6.786;2023-08-17T00:59:52;3.45;;;2.45;;
36855;SDS011;22788;51.434;6.786;2023-08-17T01:02:19;3.28;;;2.40;;
36855;SDS011;22788;51.434;6.786;2023-08-17T01:04:45;5.25;;;2.75;;
36855;SDS011;22788;51.434;6.786;2023-08-17T01:07:10;2.65;;;2.45;;
36855;SDS011;22788;51.434;6.786;2023-08-17T01:09:36;2.85;;;2.30;;
36855;SDS011;22788;51.434;6.786;2023-08-17T01:12:04;3.88;;;2.67;;
36855;SDS011;22788;51.434;6.786;2023-08-17T01:14:39;5.10;;;2.70;;
36855;SDS011;22788;51.434;6.786;2023-08-17T01:17:17;4.75;;;2.50;;
36855;SDS011;22788;51.434;6.786;2023-08-17T01:19:49;2.50;;;2.20;;
36855;SDS011;22788;51.434;6.786;2023-08-17T01:22:17;3.50;;;2.35;;
36855;SDS011;22788;51.434;6.786;2023-08-17T01:24:47;2.63;;;2.22;;
36855;SDS011;22788;51.434;6.786;2023-08-17T01:27:12;2.67;;;2.10;;
36855;SDS011;22788;51.434;6.786;2023-08-17T01:29:38;4.95;;;2.20;;
36855;SDS011;22788;51.434;6.786;2023-08-17T01:32:06;4.22;;;2.72;;
36855;SDS011;22788;51.434;6.786;2023-08-17T01:34:39;4.13;;;2.72;;
36855;SDS011;22788;51.434;6.786;2023-08-17T01:37:07;6.18;;;2.35;;
36855;SDS011;22788;51.434;6.786;2023-08-17T01:39:36;3.05;;;2.38;;
36855;SDS011;22788;51.434;6.786;2023-08-17T01:42:05;3.80;;;2.53;;
36855;SDS011;22788;51.434;6.786;2023-08-17T01:44:32;5.97;;;2.88;;
36855;SDS011;22788;51.434;6.786;2023-08-17T01:46:58;4.63;;;2.38;;
36855;SDS011;22788;51.434;6.786;2023-08-17T01:49:23;4.63;;;2.47;;
36855;SDS011;22788;51.434;6.786;2023-08-17T01:51:49;6.00;;;2.47;;
36855;SDS011;22788;51.434;6.786;2023-08-17T01:54:15;3.53;;;2.40;;
36855;SDS011;22788;51.434;6.786;2023-08-17T01:56:40;2.67;;;2.25;;
36855;SDS011;22788;51.434;6.786;2023-08-17T01:59:07;3.35;;;2.40;;
36855;SDS011;22788;51.434;6.786;2023-08-17T02:01:33;2.28;;;2.05;;
36855;SDS011;22788;51.434;6.786;2023-08-17T02:03:59;3.85;;;2.63;;
36855;SDS011;22788;51.434;6.786;2023-08-17T02:06:24;2.65;;;2.45;;
36855;SDS011;22788;51.434;6.786;2023-08-17T02:08:50;4.05;;;2.40;;
36855;SDS011;22788;51.434;6.786;2023-08-17T02:11:15;5.68;;;2.40;;
36855;SDS011;22788;51.434;6.786;2023-08-17T02:13:41;3.63;;;2.35;;
36855;SDS011;22788;51.434;6.786;2023-08-17T02:16:08;3.47;;;2.40;;
36855;SDS011;22788;51.434;6.786;2023-08-17T02:18:33;3.00;;;2.50;;
36855;SDS011;22788;51.434;6.786;2023-08-17T02:20:59;3.03;;;2.50;;
36855;SDS011;22788;51.434;6.786;2023-08-17T02:23:25;4.95;;;2.42;;
36855;SDS011;22788;51.434;6.786;2023-08-17T02:25:50;4.78;;;3.10;;
36855;SDS011;22788;51.434;6.786;2023-08-17T02:28:16;3.15;;;2.45;;
36855;SDS011;22788;51.434;6.786;2023-08-17T02:30:41;4.53;;;2.60;;
36855;SDS011;22788;51.434;6.786;2023-08-17T02:33:09;2.92;;;2.40;;
36855;SDS011;22788;51.434;6.786;2023-08-17T02:35:35;4.15;;;2.70;;
36855;SDS011;22788;51.434;6.786;2023-08-17T02:38:00;5.55;;;2.72;;
36855;SDS011;22788;51.434;6.786;2023-08-17T02:40:26;5.40;;;2.50;;
36855;SDS011;22788;51.434;6.786;2023-08-17T02:42:52;2.38;;;2.13;;
36855;SDS011;22788;51.434;6.786;2023-08-17T02:45:17;4.10;;;2.78;;
36855;SDS011;22788;51.434;6.786;2023-08-17T02:47:43;4.13;;;2.65;;
36855;SDS011;22788;51.434;6.786;2023-08-17T02:50:10;4.03;;;2.40;;
36855;SDS011;22788;51.434;6.786;2023-08-17T02:52:35;3.45;;;2.55;;
36855;SDS011;22788;51.434;6.786;2023-08-17T02:55:01;2.75;;;2.50;;
36855;SDS011;22788;51.434;6.786;2023-08-17T02:57:27;2.85;;;2.47;;
36855;SDS011;22788;51.434;6.786;2023-08-17T02:59:53;4.32;;;2.33;;
36855;SDS011;22788;51.434;6.786;2023-08-17T03:02:18;2.80;;;2.58;;
36855;SDS011;22788;51.434;6.786;2023-08-17T03:04:44;3.03;;;2.72;;
36855;SDS011;22788;51.434;6.786;2023-08-17T03:07:11;4.43;;;3.20;;
36855;SDS011;22788;51.434;6.786;2023-08-17T03:09:37;5.40;;;2.42;;
36855;SDS011;22788;51.434;6.786;2023-08-17T03:12:02;3.47;;;2.72;;
36855;SDS011;22788;51.434;6.786;2023-08-17T03:14:29;4.18;;;2.60;;
36855;SDS011;22788;51.434;6.786;2023-08-17T03:16:54;4.55;;;2.50;;
36855;SDS011;22788;51.434;6.786;2023-08-17T03:19:20;3.83;;;3.00;;
36855;SDS011;22788;51.434;6.786;2023-08-17T03:21:46;3.38;;;2.40;;
36855;SDS011;22788;51.434;6.786;2023-08-17T03:24:13;4.00;;;3.05;;
36855;SDS011;22788;51.434;6.786;2023-08-17T03:26:38;3.88;;;2.47;;
36855;SDS011;22788;51.434;6.786;2023-08-17T03:29:04;4.30;;;2.78;;
36855;SDS011;22788;51.434;6.786;2023-08-17T03:31:30;4.10;;;3.00;;
36855;SDS011;22788;51.434;6.786;2023-08-17T03:33:55;4.35;;;2.42;;
36855;SDS011;22788;51.434;6.786;2023-08-17T03:36:21;4.05;;;2.80;;
36855;SDS011;22788;51.434;6.786;2023-08-17T03:38:46;3.63;;;2.90;;
36855;SDS011;22788;51.434;6.786;2023-08-17T03:41:13;4.20;;;3.00;;
36855;SDS011;22788;51.434;6.786;2023-08-17T03:43:39;3.05;;;2.35;;
36855;SDS011;22788;51.434;6.786;2023-08-17T03:46:05;3.67;;;2.63;;
36855;SDS011;22788;51.434;6.786;2023-08-17T03:48:30;4.78;;;2.97;;
36855;SDS011;22788;51.434;6.786;2023-08-17T03:50:56;7.20;;;2.53;;
36855;SDS011;22788;51.434;6.786;2023-08-17T03:53:22;4.10;;;2.50;;
36855;SDS011;22788;51.434;6.786;2023-08-17T03:55:48;5.07;;;2.35;;
36855;SDS011;22788;51.434;6.786;2023-08-17T03:58:15;4.55;;;2.47;;
36855;SDS011;22788;51.434;6.786;2023-08-17T04:00:42;3.78;;;2.40;;
36855;SDS011;22788;51.434;6.786;2023-08-17T04:03:13;4.15;;;2.53;;
36855;SDS011;22788;51.434;6.786;2023-08-17T04:05:39;2.75;;;2.30;;
36855;SDS011;22788;51.434;6.786;2023-08-17T04:08:04;3.75;;;2.50;;
36855;SDS011;22788;51.434;6.786;2023-08-17T04:10:30;5.18;;;2.90;;
36855;SDS011;22788;51.434;6.786;2023-08-17T04:12:56;3.53;;;2.90;;
36855;SDS011;22788;51.434;6.786;2023-08-17T04:15:23;3.05;;;2.60;;
36855;SDS011;22788;51.434;6.786;2023-08-17T04:17:48;3.75;;;2.50;;
36855;SDS011;22788;51.434;6.786;2023-08-17T04:20:14;2.88;;;2.30;;
36855;SDS011;22788;51.434;6.786;2023-08-17T04:22:40;4.03;;;2.75;;
36855;SDS011;22788;51.434;6.786;2023-08-17T04:25:06;3.70;;;2.40;;
36855;SDS011;22788;51.434;6.786;2023-08-17T04:27:31;2.80;;;2.33;;
36855;SDS011;22788;51.434;6.786;2023-08-17T04:29:57;4.18;;;2.63;;
36855;SDS011;22788;51.434;6.786;2023-08-17T04:32:24;3.45;;;2.40;;
36855;SDS011;22788;51.434;6.786;2023-08-17T04:34:50;3.03;;;2.60;;
36855;SDS011;22788;51.434;6.786;2023-08-17T04:37:15;4.18;;;2.30;;
36855;SDS011;22788;51.434;6.786;2023-08-17T04:39:41;2.90;;;2.30;;
36855;SDS011;22788;51.434;6.786;2023-08-17T04:42:06;4.65;;;2.70;;
36855;SDS011;22788;51.434;6.786;2023-08-17T04:44:32;2.50;;;2.30;;
36855;SDS011;22788;51.434;6.786;2023-08-17T04:46:58;3.17;;;2.05;;
36855;SDS011;22788;51.434;6.786;2023-08-17T04:49:25;4.65;;;2.67;;
36855;SDS011;22788;51.434;6.786;2023-08-17T04:51:50;4.18;;;2.13;;
36855;SDS011;22788;51.434;6.786;2023-08-17T04:54:16;2.67;;;2.30;;
36855;SDS011;22788;51.434;6.786;2023-08-17T04:56:41;3.33;;;2.33;;
36855;SDS011;22788;51.434;6.786;2023-08-17T04:59:07;3.20;;;2.30;;
36855;SDS011;22788;51.434;6.786;2023-08-17T05:01:32;4.03;;;2.50;;
36855;SDS011;22788;51.434;6.786;2023-08-17T05:03:58;4.38;;;2.15;;
36855;SDS011;22788;51.434;6.786;2023-08-17T05:06:27;6.15;;;2.60;;
36855;SDS011;22788;51.434;6.786;2023-08-17T05:08:53;2.60;;;2.40;;
36855;SDS011;22788;51.434;6.786;2023-08-17T05:11:18;4.88;;;2.28;;
36855;SDS011;22788;51.434;6.786;2023-08-17T05:13:44;5.75;;;2.80;;
36855;SDS011;22788;51.434;6.786;2023-08-17T05:16:09;4.18;;;2.70;;
36855;SDS011;22788;51.434;6.786;2023-08-17T05:18:35;3.22;;;2.47;;
36855;SDS011;22788;51.434;6.786;2023-08-17T05:21:01;2.97;;;2.15;;
36855;SDS011;22788;51.434;6.786;2023-08-17T05:23:28;4.70;;;2.40;;
36855;SDS011;22788;51.434;6.786;2023-08-17T05:25:53;3.88;;;2.20;;
36855;SDS011;22788;51.434;6.786;2023-08-17T05:28:19;2.30;;;2.10;;
36855;SDS011;22788;51.434;6.786;2023-08-17T05:30:46;3.20;;;2.55;;
36855;SDS011;22788;51.434;6.786;2023-08-17T05:33:11;4.20;;;2.35;;
36855;SDS011;22788;51.434;6.786;2023-08-17T05:35:37;5.60;;;2.60;;
36855;SDS011;22788;51.434;6.786;2023-08-17T05:38:03;2.58;;;1.98;;
36855;SDS011;22788;51.434;6.786;2023-08-17T05:40:30;2.88;;;2.40;;
36855;SDS011;22788;51.434;6.786;2023-08-17T05:42:56;6.13;;;2.88;;
36855;SDS011;22788;51.434;6.786;2023-08-17T05:45:22;4.38;;;2.85;;
36855;SDS011;22788;51.434;6.786;2023-08-17T05:47:48;4.33;;;3.30;;
36855;SDS011;22788;51.434;6.786;2023-08-17T05:50:13;5.65;;;3.05;;
36855;SDS011;22788;51.434;6.786;2023-08-17T05:52:39;5.65;;;3.00;;
36855;SDS011;22788;51.434;6.786;2023-08-17T05:55:05;8.43;;;3.33;;
36855;SDS011;22788;51.434;6.786;2023-08-17T05:57:33;6.72;;;2.92;;
36855;SDS011;22788;51.434;6.786;2023-08-17T05:59:58;3.35;;;2.88;;
36855;SDS011;22788;51.434;6.786;2023-08-17T06:02:24;3.67;;;2.30;;
36855;SDS011;22788;51.434;6.786;2023-08-17T06:04:50;3.67;;;2.95;;
36855;SDS011;22788;51.434;6.786;2023-08-17T06:07:15;5.78;;;2.90;;
36855;SDS011;22788;51.434;6.786;2023-08-17T06:09:41;4.80;;;2.85;;
36855;SDS011;22788;51.434;6.786;2023-08-17T06:12:07;4.40;;;3.20;;
36855;SDS011;22788;51.434;6.786;2023-08-17T06:14:34;4.80;;;3.20;;
36855;SDS011;22788;51.434;6.786;2023-08-17T06:16:59;4.15;;;2.58;;
36855;SDS011;22788;51.434;6.786;2023-08-17T06:19:25;3.63;;;2.40;;
36855;SDS011;22788;51.434;6.786;2023-08-17T06:21:51;3.38;;;2.63;;
36855;SDS011;22788;51.434;6.786;2023-08-17T06:24:16;6.68;;;3.15;;
36855;SDS011;22788;51.434;6.786;2023-08-17T06:26:42;4.50;;;3.17;;
36855;SDS011;22788;51.434;6.786;2023-08-17T06:29:08;6.75;;;3.08;;
36855;SDS011;22788;51.434;6.786;2023-08-17T06:31:35;5.53;;;3.30;;
36855;SDS011;22788;51.434;6.786;2023-08-17T06:34:01;6.40;;;3.50;;
36855;SDS011;22788;51.434;6.786;2023-08-17T06:36:29;4.55;;;3.40;;
36855;SDS011;22788;51.434;6.786;2023-08-17T06:38:55;10.65;;;5.88;;
36855;SDS011;22788;51.434;6.786;2023-08-17T06:41:21;7.32;;;4.63;;
36855;SDS011;22788;51.434;6.786;2023-08-17T06:43:46;5.80;;;3.38;;
36855;SDS011;22788;51.434;6.786;2023-08-17T06:46:12;6.15;;;4.18;;
36855;SDS011;22788;51.434;6.786;2023-08-17T06:48:39;4.90;;;3.58;;
36855;SDS011;22788;51.434;6.786;2023-08-17T06:51:05;8.07;;;4.60;;
36855;SDS011;22788;51.434;6.786;2023-08-17T06:53:30;5.57;;;4.43;;
36855;SDS011;22788;51.434;6.786;2023-08-17T06:55:56;5.70;;;4.00;;
36855;SDS011;22788;51.434;6.786;2023-08-17T06:58:21;6.13;;;3.92;;
36855;SDS011;22788;51.434;6.786;2023-08-17T07:00:47;6.38;;;4.85;;
36855;SDS011;22788;51.434;6.786;2023-08-17T07:03:13;6.30;;;4.20;;
36855;SDS011;22788;51.434;6.786;2023-08-17T07:05:40;8.95;;;6.50;;
36855;SDS011;22788;51.434;6.786;2023-08-17T07:08:05;9.90;;;6.78;;
36855;SDS011;22788;51.434;6.786;2023-08-17T07:10:31;7.15;;;4.57;;
36855;SDS011;22788;51.434;6.786;2023-08-17T07:12:56;9.27;;;5.20;;
36855;SDS011;22788;51.434;6.786;2023-08-17T07:15:22;7.85;;;5.68;;
36855;SDS011;22788;51.434;6.786;2023-08-17T07:17:48;8.43;;;5.65;;
36855;SDS011;22788;51.434;6.786;2023-08-17T07:20:13;8.02;;;5.00;;
36855;SDS011;22788;51.434;6.786;2023-08-17T07:22:41;7.03;;;5.10;;
36855;SDS011;22788;51.434;6.786;2023-08-17T07:25:07;8.68;;;6.45;;
36855;SDS011;22788;51.434;6.786;2023-08-17T07:27:33;9.65;;;8.13;;
36855;SDS011;22788;51.434;6.786;2023-08-17T07:29:58;6.25;;;5.13;;
36855;SDS011;22788;51.434;6.786;2023-08-17T07:32:24;11.00;;;5.72;;
36855;SDS011;22788;51.434;6.786;2023-08-17T07:34:50;6.30;;;5.13;;
36855;SDS011;22788;51.434;6.786;2023-08-17T07:37:15;10.02;;;6.40;;
36855;SDS011;22788;51.434;6.786;2023-08-17T07:39:42;10.52;;;6.60;;
36855;SDS011;22788;51.434;6.786;2023-08-17T07:42:08;10.57;;;7.63;;
36855;SDS011;22788;51.434;6.786;2023-08-17T07:44:33;8.98;;;5.82;;
36855;SDS011;22788;51.434;6.786;2023-08-17T07:46:59;9.65;;;6.28;;
36855;SDS011;22788;51.434;6.786;2023-08-17T07:49:25;8.98;;;6.75;;
36855;SDS011;22788;51.434;6.786;2023-08-17T07:51:52;8.25;;;6.47;;
36855;SDS011;22788;51.434;6.786;2023-08-17T07:54:18;12.00;;;8.55;;
36855;SDS011;22788;51.434;6.786;2023-08-17T07:56:45;10.98;;;7.60;;
36855;SDS011;22788;51.434;6.786;2023-08-17T07:59:11;12.10;;;7.30;;
36855;SDS011;22788;51.434;6.786;2023-08-17T08:01:36;17.55;;;10.52;;
36855;SDS011;22788;51.434;6.786;2023-08-17T08:04:02;14.63;;;9.57;;
36855;SDS011;22788;51.434;6.786;2023-08-17T08:06:28;9.18;;;7.47;;
36855;SDS011;22788;51.434;6.786;2023-08-17T08:08:53;13.27;;;7.40;;
36855;SDS011;22788;51.434;6.786;2023-08-17T08:11:21;10.60;;;7.32;;
36855;SDS011;22788;51.434;6.786;2023-08-17T08:13:48;10.75;;;7.25;;
36855;SDS011;22788;51.434;6.786;2023-08-17T08:16:13;10.88;;;8.43;;
36855;SDS011;22788;51.434;6.786;2023-08-17T08:18:39;14.45;;;9.27;;
36855;SDS011;22788;51.434;6.786;2023-08-17T08:21:05;13.60;;;9.35;;
36855;SDS011;22788;51.434;6.786;2023-08-17T08:23:30;15.73;;;10.07;;
36855;SDS011;22788;51.434;6.786;2023-08-17T08:25:56;11.30;;;7.65;;
36855;SDS011;22788;51.434;6.786;2023-08-17T08:28:21;15.70;;;10.70;;
36855;SDS011;22788;51.434;6.786;2023-08-17T08:30:48;12.52;;;8.77;;
36855;SDS011;22788;51.434;6.786;2023-08-17T08:33:14;11.90;;;9.25;;
36855;SDS011;22788;51.434;6.786;2023-08-17T08:35:40;16.25;;;11.25;;
36855;SDS011;22788;51.434;6.786;2023-08-17T08:38:05;12.27;;;10.63;;
36855;SDS011;22788;51.434;6.786;2023-08-17T08:40:31;15.82;;;10.80;;
36855;SDS011;22788;51.434;6.786;2023-08-17T08:42:57;12.52;;;10.90;;
36855;SDS011;22788;51.434;6.786;2023-08-17T08:45:23;11.25;;;9.88;;
36855;SDS011;22788;51.434;6.786;2023-08-17T08:47:50;16.25;;;13.35;;
36855;SDS011;22788;51.434;6.786;2023-08-17T08:50:18;15.63;;;9.98;;
36855;SDS011;22788;51.434;6.786;2023-08-17T08:52:50;21.27;;;15.55;;
36855;SDS011;22788;51.434;6.786;2023-08-17T08:55:23;22.65;;;16.30;;
36855;SDS011;22788;51.434;6.786;2023-08-17T08:57:51;14.52;;;11.50;;
36855;SDS011;22788;51.434;6.786;2023-08-17T09:00:18;16.27;;;12.20;;
36855;SDS011;22788;51.434;6.786;2023-08-17T09:02:44;14.82;;;12.40;;
36855;SDS011;22788;51.434;6.786;2023-08-17T09:05:12;17.80;;;13.88;;
36855;SDS011;22788;51.434;6.786;2023-08-17T09:07:39;15.30;;;13.07;;
36855;SDS011;22788;51.434;6.786;2023-08-17T09:10:06;19.92;;;15.05;;
36855;SDS011;22788;51.434;6.786;2023-08-17T09:12:33;18.10;;;15.27;;
36855;SDS011;22788;51.434;6.786;2023-08-17T09:14:59;14.43;;;12.93;;
36855;SDS011;22788;51.434;6.786;2023-08-17T09:17:25;17.58;;;13.02;;
36855;SDS011;22788;51.434;6.786;2023-08-17T09:19:52;20.23;;;17.45;;
36855;SDS011;22788;51.434;6.786;2023-08-17T09:22:23;18.30;;;13.25;;
36855;SDS011;22788;51.434;6.786;2023-08-17T09:24:49;19.40;;;15.13;;
36855;SDS011;22788;51.434;6.786;2023-08-17T09:27:14;20.05;;;17.40;;
36855;SDS011;22788;51.434;6.786;2023-08-17T09:29:42;18.52;;;14.80;;
36855;SDS011;22788;51.434;6.786;2023-08-17T09:32:08;16.80;;;13.85;;
36855;SDS011;22788;51.434;6.786;2023-08-17T09:34:34;18.35;;;13.93;;
36855;SDS011;22788;51.434;6.786;2023-08-17T09:37:03;16.88;;;15.10;;
36855;SDS011;22788;51.434;6.786;2023-08-17T09:39:30;21.98;;;17.98;;
36855;SDS011;22788;51.434;6.786;2023-08-17T09:41:56;22.90;;;18.80;;
36855;SDS011;22788;51.434;6.786;2023-08-17T09:44:22;21.10;;;17.95;;
36855;SDS011;22788;51.434;6.786;2023-08-17T09:46:47;20.58;;;16.52;;
36855;SDS011;22788;51.434;6.786;2023-08-17T09:49:13;22.95;;;17.75;;
36855;SDS011;22788;51.434;6.786;2023-08-17T09:51:41;26.83;;;19.98;;
36855;SDS011;22788;51.434;6.786;2023-08-17T09:54:07;17.77;;;15.25;;
36855;SDS011;22788;51.434;6.786;2023-08-17T09:56:34;18.08;;;15.52;;
36855;SDS011;22788;51.434;6.786;2023-08-17T09:59:00;22.30;;;18.23;;
36855;SDS011;22788;51.434;6.786;2023-08-17T10:01:25;19.02;;;15.77;;
36855;SDS011;22788;51.434;6.786;2023-08-17T10:03:53;25.33;;;19.25;;
36855;SDS011;22788;51.434;6.786;2023-08-17T10:06:22;22.33;;;18.00;;
36855;SDS011;22788;51.434;6.786;2023-08-17T10:08:51;19.23;;;16.00;;
36855;SDS011;22788;51.434;6.786;2023-08-17T10:11:19;21.88;;;15.88;;
36855;SDS011;22788;51.434;6.786;2023-08-17T10:13:51;19.48;;;16.23;;
36855;SDS011;22788;51.434;6.786;2023-08-17T10:16:19;21.17;;;16.77;;
36855;SDS011;22788;51.434;6.786;2023-08-17T10:18:49;19.67;;;15.85;;
36855;SDS011;22788;51.434;6.786;2023-08-17T10:21:21;25.77;;;21.50;;
36855;SDS011;22788;51.434;6.786;2023-08-17T10:23:50;22.35;;;18.45;;
36855;SDS011;22788;51.434;6.786;2023-08-17T10:26:16;20.95;;;17.13;;
36855;SDS011;22788;51.434;6.786;2023-08-17T10:28:43;17.65;;;15.77;;
36855;SDS011;22788;51.434;6.786;2023-08-17T10:31:11;21.45;;;17.23;;
36855;SDS011;22788;51.434;6.786;2023-08-17T10:33:37;21.42;;;17.27;;
36855;SDS011;22788;51.434;6.786;2023-08-17T10:36:03;20.15;;;17.95;;
36855;SDS011;22788;51.434;6.786;2023-08-17T10:38:30;21.17;;;16.35;;
36855;SDS011;22788;51.434;6.786;2023-08-17T10:41:08;22.10;;;18.48;;
36855;SDS011;22788;51.434;6.786;2023-08-17T10:43:35;20.15;;;18.10;;
36855;SDS011;22788;51.434;6.786;2023-08-17T10:46:19;21.33;;;17.60;;
36855;SDS011;22788;51.434;6.786;2023-08-17T10:48:44;20.40;;;18.17;;
36855;SDS011;22788;51.434;6.786;2023-08-17T10:51:10;20.85;;;18.02;;
36855;SDS011;22788;51.434;6.786;2023-08-17T10:53:36;21.88;;;19.52;;
36855;SDS011;22788;51.434;6.786;2023-08-17T10:56:03;23.40;;;17.55;;
36855;SDS011;22788;51.434;6.786;2023-08-17T10:58:32;19.30;;;17.05;;
36855;SDS011;22788;51.434;6.786;2023-08-17T11:00:58;19.50;;;17.10;;
36855;SDS011;22788;51.434;6.786;2023-08-17T11:03:24;22.00;;;17.92;;
36855;SDS011;22788;51.434;6.786;2023-08-17T11:05:51;25.35;;;22.63;;
36855;SDS011;22788;51.434;6.786;2023-08-17T11:08:20;23.58;;;19.73;;
36855;SDS011;22788;51.434;6.786;2023-08-17T11:10:47;19.48;;;17.08;;
36855;SDS011;22788;51.434;6.786;2023-08-17T11:13:13;20.42;;;18.08;;
36855;SDS011;22788;51.434;6.786;2023-08-17T11:15:39;22.55;;;19.02;;
36855;SDS011;22788;51.434;6.786;2023-08-17T11:18:06;22.90;;;18.98;;
36855;SDS011;22788;51.434;6.786;2023-08-17T11:20:33;32.38;;;22.75;;
36855;SDS011;22788;51.434;6.786;2023-08-17T11:22:59;22.52;;;19.25;;
36855;SDS011;22788;51.434;6.786;2023-08-17T11:25:25;21.90;;;18.52;;
36855;SDS011;22788;51.434;6.786;2023-08-17T11:27:51;22.00;;;19.67;;
36855;SDS011;22788;51.434;6.786;2023-08-17T11:30:17;24.67;;;20.75;;
36855;SDS011;22788;51.434;6.786;2023-08-17T11:32:43;24.15;;;20.15;;
36855;SDS011;22788;51.434;6.786;2023-08-17T11:35:08;22.98;;;18.30;;
36855;SDS011;22788;51.434;6.786;2023-08-17T11:37:35;22.38;;;18.50;;
36855;SDS011;22788;51.434;6.786;2023-08-17T11:40:01;23.85;;;19.13;;
36855;SDS011;22788;51.434;6.786;2023-08-17T11:42:27;25.35;;;20.92;;
36855;SDS011;22788;51.434;6.786;2023-08-17T11:44:52;23.73;;;18.95;;
36855;SDS011;22788;51.434;6.786;2023-08-17T11:47:18;20.40;;;18.20;;
36855;SDS011;22788;51.434;6.786;2023-08-17T11:49:47;20.23;;;17.83;;
36855;SDS011;22788;51.434;6.786;2023-08-17T11:52:12;20.33;;;18.08;;
36855;SDS011;22788;51.434;6.786;2023-08-17T11:54:41;20.02;;;17.88;;
36855;SDS011;22788;51.434;6.786;2023-08-17T11:57:06;21.40;;;18.83;;
36855;SDS011;22788;51.434;6.786;2023-08-17T11:59:32;25.80;;;20.52;;
36855;SDS011;22788;51.434;6.786;2023-08-17T12:01:58;22.95;;;19.08;;
36855;SDS011;22788;51.434;6.786;2023-08-17T12:04:23;22.40;;;19.30;;
36855;SDS011;22788;51.434;6.786;2023-08-17T12:06:49;25.42;;;20.80;;
36855;SDS011;22788;51.434;6.786;2023-08-17T12:09:15;25.45;;;19.00;;
36855;SDS011;22788;51.434;6.786;2023-08-17T12:11:42;19.92;;;17.83;;
36855;SDS011;22788;51.434;6.786;2023-08-17T12:14:10;24.58;;;19.15;;
36855;SDS011;22788;51.434;6.786;2023-08-17T12:16:44;21.17;;;18.45;;
36855;SDS011;22788;51.434;6.786;2023-08-17T12:19:10;23.13;;;20.63;;
36855;SDS011;22788;51.434;6.786;2023-08-17T12:21:36;23.33;;;19.17;;
36855;SDS011;22788;51.434;6.786;2023-08-17T12:24:05;20.25;;;17.60;;
36855;SDS011;22788;51.434;6.786;2023-08-17T12:26:31;24.38;;;19.65;;
36855;SDS011;22788;51.434;6.786;2023-08-17T12:28:58;25.10;;;21.10;;
36855;SDS011;22788;51.434;6.786;2023-08-17T12:31:24;21.23;;;17.27;;
36855;SDS011;22788;51.434;6.786;2023-08-17T12:33:49;25.10;;;19.98;;
36855;SDS011;22788;51.434;6.786;2023-08-17T12:36:15;26.17;;;20.83;;
36855;SDS011;22788;51.434;6.786;2023-08-17T12:38:41;22.45;;;18.65;;
36855;SDS011;22788;51.434;6.786;2023-08-17T12:41:06;27.08;;;20.98;;
36855;SDS011;22788;51.434;6.786;2023-08-17T12:43:32;27.20;;;21.90;;
36855;SDS011;22788;51.434;6.786;2023-08-17T12:45:59;26.67;;;22.40;;
36855;SDS011;22788;51.434;6.786;2023-08-17T12:48:24;21.83;;;18.75;;
36855;SDS011;22788;51.434;6.786;2023-08-17T12:50:50;23.05;;;19.02;;
36855;SDS011;22788;51.434;6.786;2023-08-17T12:53:15;22.30;;;19.00;;
36855;SDS011;22788;51.434;6.786;2023-08-17T12:55:41;19.52;;;16.77;;
36855;SDS011;22788;51.434;6.786;2023-08-17T12:58:07;21.67;;;18.45;;
36855;SDS011;22788;51.434;6.786;2023-08-17T13:00:33;19.40;;;17.25;;
36855;SDS011;22788;51.434;6.786;2023-08-17T13:03:00;24.10;;;19.50;;
36855;SDS011;22788;51.434;6.786;2023-08-17T13:05:26;21.80;;;18.55;;
36855;SDS011;22788;51.434;6.786;2023-08-17T13:07:51;19.67;;;17.63;;
36855;SDS011;22788;51.434;6.786;2023-08-17T13:10:17;26.77;;;20.25;;
36855;SDS011;22788;51.434;6.786;2023-08-17T13:12:43;26.48;;;19.52;;
36855;SDS011;22788;51.434;6.786;2023-08-17T13:15:09;21.55;;;19.15;;
36855;SDS011;22788;51.434;6.786;2023-08-17T13:17:35;24.85;;;20.85;;
36855;SDS011;22788;51.434;6.786;2023-08-17T13:20:03;20.67;;;17.35;;
36855;SDS011;22788;51.434;6.786;2023-08-17T13:22:29;25.35;;;20.88;;
36855;SDS011;22788;51.434;6.786;2023-08-17T13:24:54;26.42;;;18.88;;
36855;SDS011;22788;51.434;6.786;2023-08-17T13:27:20;21.73;;;18.30;;
36855;SDS011;22788;51.434;6.786;2023-08-17T13:29:46;24.13;;;19.70;;
36855;SDS011;22788;51.434;6.786;2023-08-17T13:32:11;27.55;;;22.80;;
36855;SDS011;22788;51.434;6.786;2023-08-17T13:34:37;25.00;;;19.65;;
36855;SDS011;22788;51.434;6.786;2023-08-17T13:37:04;26.85;;;19.77;;
36855;SDS011;22788;51.434;6.786;2023-08-17T13:39:29;23.73;;;19.40;;
36855;SDS011;22788;51.434;6.786;2023-08-17T13:41:55;20.58;;;17.60;;
36855;SDS011;22788;51.434;6.786;2023-08-17T13:44:21;23.10;;;19.02;;
36855;SDS011;22788;51.434;6.786;2023-08-17T13:46:46;21.15;;;17.33;;
36855;SDS011;22788;51.434;6.786;2023-08-17T13:49:12;24.33;;;18.67;;
36855;SDS011;22788;51.434;6.786;2023-08-17T13:51:37;22.83;;;18.90;;
36855;SDS011;22788;51.434;6.786;2023-08-17T13:54:05;24.55;;;19.08;;
36855;SDS011;22788;51.434;6.786;2023-08-17T13:56:30;21.05;;;17.58;;
36855;SDS011;22788;51.434;6.786;2023-08-17T13:58:56;20.40;;;18.20;;
36855;SDS011;22788;51.434;6.786;2023-08-17T14:01:21;19.95;;;17.02;;
36855;SDS011;22788;51.434;6.786;2023-08-17T14:03:47;22.15;;;17.90;;
36855;SDS011;22788;51.434;6.786;2023-08-17T14:06:13;21.90;;;17.08;;
36855;SDS011;22788;51.434;6.786;2023-08-17T14:08:39;18.83;;;16.83;;
36855;SDS011;22788;51.434;6.786;2023-08-17T14:11:06;20.23;;;16.50;;
36855;SDS011;22788;51.434;6.786;2023-08-17T14:13:31;21.67;;;17.30;;
36855;SDS011;22788;51.434;6.786;2023-08-17T14:15:57;20.67;;;16.88;;
36855;SDS011;22788;51.434;6.786;2023-08-17T14:18:22;22.10;;;17.73;;
36855;SDS011;22788;51.434;6.786;2023-08-17T14:20:48;18.90;;;15.98;;
36855;SDS011;22788;51.434;6.786;2023-08-17T14:23:14;21.63;;;17.75;;
36855;SDS011;22788;51.434;6.786;2023-08-17T14:25:39;19.83;;;17.17;;
36855;SDS011;22788;51.434;6.786;2023-08-17T14:28:06;19.45;;;16.75;;
36855;SDS011;22788;51.434;6.786;2023-08-17T14:30:33;19.90;;;16.38;;